Pagina principale
METAR-TAF:

METAR-TAF

Aeroporti :

Ramsar, Iran

latitudine: 36-54N, longitudine: 050-40E, altezza: -23 m

Osservazione

Il bollettino è stato emesso 44 minuti fa, alle 16:00 UTC
Vento 4 kt da est/nord-est
Temperature 22°C
Umidità 78%
Pressione 1014 hPa
Visibilità 10 km o più
Poco nuvoloso ad un'altezza di 2200 ft, Cumulonembo.
Nuvoloso ad un'altezza di 2700 ft

METAR: OINR 051600Z 06004KT 9999 FEW022CB BKN027 22/18 Q1014

Ora: 21:14 (16:44 UTC)


TAF: mancante

Osservazioni e previsioni meteorologiche di più di 4000 aeroporti (messaggi METAR e TAF).

Le stazioni disponibili sono rappresentate dai dischi gialli e rossi sulla carta.

Puntare il mouse per vedere il nome della stazione.

Clicca sopra per visualizzare le osservazioni e previsioni meteorologiche.

Per cambiare la mappa : fare clic sui pulsanti verdi con una croce nera per ingrandire, il pulsante verde con un trattino per diminuire, o sulla freccia verde per le mappe adiacenti.


METAR-TAF: